createdAt,value
2018-06-30T00:01:42.925Z,10.40
2018-06-30T00:04:11.280Z,10.23
2018-06-30T00:06:40.361Z,9.30
2018-06-30T00:09:12.543Z,9.37
2018-06-30T00:11:40.115Z,10.17
2018-06-30T00:14:08.008Z,9.63
2018-06-30T00:16:40.522Z,10.10
2018-06-30T00:19:08.091Z,10.87
2018-06-30T00:21:36.326Z,10.50
2018-06-30T00:24:05.311Z,10.50
2018-06-30T00:26:33.263Z,11.43
2018-06-30T00:29:02.203Z,11.13
2018-06-30T00:31:29.947Z,10.18
2018-06-30T00:33:57.360Z,10.57
2018-06-30T00:36:24.822Z,11.95
2018-06-30T00:38:52.360Z,12.65
2018-06-30T00:41:24.607Z,11.75
2018-06-30T00:43:53.581Z,11.10
2018-06-30T00:46:25.918Z,10.32
2018-06-30T00:48:53.433Z,11.45
2018-06-30T00:51:20.916Z,10.40
2018-06-30T00:53:48.967Z,10.58
2018-06-30T00:56:22.516Z,11.45
2018-06-30T00:58:49.984Z,11.20
2018-06-30T01:01:17.859Z,11.38
2018-06-30T01:03:45.600Z,11.45
2018-06-30T01:06:17.988Z,10.73
2018-06-30T01:08:46.782Z,11.07
2018-06-30T01:11:14.611Z,10.88
2018-06-30T01:13:42.092Z,11.27
2018-06-30T01:16:09.862Z,10.18
2018-06-30T01:18:40.156Z,12.40
2018-06-30T01:21:07.656Z,13.08
2018-06-30T01:23:35.196Z,12.33
2018-06-30T01:26:03.594Z,13.73
2018-06-30T01:28:31.036Z,12.43
2018-06-30T01:30:58.777Z,12.73
2018-06-30T01:33:26.609Z,13.40
2018-06-30T01:35:56.858Z,12.82
2018-06-30T01:38:24.935Z,12.35
2018-06-30T01:40:52.647Z,10.58
2018-06-30T01:43:20.621Z,12.00
2018-06-30T01:45:48.540Z,11.33
2018-06-30T01:48:17.176Z,11.75
2018-06-30T01:50:45.463Z,10.95
2018-06-30T01:53:12.937Z,11.40
2018-06-30T01:55:41.401Z,12.07
2018-06-30T01:58:11.455Z,11.00
2018-06-30T02:00:39.938Z,9.93
2018-06-30T02:03:09.051Z,11.20
2018-06-30T02:05:36.520Z,11.15
2018-06-30T02:08:04.042Z,11.60
2018-06-30T02:10:32.054Z,11.00
2018-06-30T02:13:00.391Z,11.57
2018-06-30T02:15:27.859Z,10.28
2018-06-30T02:18:00.910Z,10.23
2018-06-30T02:20:34.646Z,11.30
2018-06-30T02:23:02.478Z,11.85
2018-06-30T02:25:30.324Z,11.80
2018-06-30T02:27:58.114Z,11.35
2018-06-30T02:30:26.689Z,10.30
2018-06-30T02:32:54.892Z,11.50
2018-06-30T02:48:22.560Z,9.80
2018-06-30T02:50:49.998Z,9.80
2018-06-30T02:53:18.492Z,9.75
2018-06-30T02:55:45.902Z,10.43
2018-06-30T02:58:14.913Z,10.50
2018-06-30T03:00:42.690Z,11.35
2018-06-30T03:03:10.970Z,9.38
2018-06-30T03:05:38.852Z,9.13
2018-06-30T03:08:06.278Z,10.13
2018-06-30T03:10:33.726Z,8.95
2018-06-30T03:13:02.091Z,9.30
2018-06-30T03:15:36.163Z,7.60
2018-06-30T03:18:04.717Z,9.65
2018-06-30T03:20:38.707Z,7.95
2018-06-30T03:23:13.301Z,7.22
2018-06-30T03:25:41.618Z,7.87
2018-06-30T03:28:09.571Z,8.20
2018-06-30T03:30:38.331Z,7.00
2018-06-30T03:33:05.800Z,6.58
2018-06-30T03:35:33.795Z,6.30
2018-06-30T03:38:04.155Z,5.90
2018-06-30T03:40:32.111Z,6.00
2018-06-30T03:42:59.626Z,6.47
2018-06-30T03:45:27.174Z,5.92
2018-06-30T03:47:54.646Z,7.55
2018-06-30T04:00:08.002Z,5.70
2018-06-30T04:02:35.531Z,5.20
2018-06-30T04:05:03.738Z,5.80
2018-06-30T04:07:34.468Z,4.95
2018-06-30T04:19:46.916Z,5.00
2018-06-30T04:22:22.134Z,5.40
2018-06-30T04:24:54.161Z,4.50
2018-06-30T04:27:25.832Z,5.20
2018-06-30T04:29:53.750Z,5.22
2018-06-30T04:32:22.034Z,5.00
2018-06-30T04:34:50.446Z,5.27
2018-06-30T04:37:18.275Z,4.53
2018-06-30T04:39:45.911Z,5.63
2018-06-30T04:42:13.880Z,4.60
2018-06-30T04:44:45.323Z,4.12
2018-06-30T04:47:13.465Z,4.73
2018-06-30T04:49:44.051Z,4.30
2018-06-30T04:52:14.508Z,4.27
2018-06-30T04:54:43.386Z,4.47
2018-06-30T04:57:11.953Z,4.20
2018-06-30T05:09:24.463Z,3.70
2018-06-30T05:11:52.050Z,3.80
2018-06-30T05:14:19.956Z,3.53
2018-06-30T05:16:48.127Z,3.70
2018-06-30T05:19:15.606Z,4.50
2018-06-30T05:21:43.092Z,3.83
2018-06-30T05:33:56.212Z,3.00
2018-06-30T05:36:25.458Z,2.53
2018-06-30T05:38:53.105Z,3.33
2018-06-30T05:41:24.382Z,3.70
2018-06-30T05:43:52.259Z,3.40
2018-06-30T05:46:19.667Z,3.27
2018-06-30T05:48:47.327Z,3.20
2018-06-30T05:51:14.630Z,3.10
2018-06-30T05:53:41.950Z,3.10
2018-06-30T05:56:10.118Z,3.50
2018-06-30T05:58:37.471Z,3.37
2018-06-30T06:01:04.905Z,3.10
2018-06-30T06:03:32.237Z,3.00
2018-06-30T06:05:59.620Z,2.97
2018-06-30T06:08:27.033Z,3.10
2018-06-30T06:10:54.358Z,3.80
2018-06-30T06:13:21.663Z,2.90
2018-06-30T06:15:49.017Z,3.50
2018-06-30T06:18:16.333Z,3.30
2018-06-30T06:20:43.756Z,3.43
2018-06-30T06:23:11.095Z,3.10
2018-06-30T06:25:38.387Z,3.40
2018-06-30T06:28:05.807Z,3.03
2018-06-30T06:30:33.083Z,3.40
2018-06-30T06:33:00.372Z,2.70
2018-06-30T06:35:27.691Z,2.90
2018-06-30T06:37:55.032Z,2.90
2018-06-30T06:40:22.410Z,2.70
2018-06-30T06:42:49.739Z,2.77
2018-06-30T06:45:17.192Z,2.77
2018-06-30T06:47:44.564Z,2.60
2018-06-30T06:50:11.970Z,3.07
2018-06-30T06:52:39.330Z,3.40
2018-06-30T06:55:07.345Z,2.80
2018-06-30T06:57:34.676Z,2.70
2018-06-30T07:00:02.016Z,3.10
2018-06-30T07:02:29.312Z,2.87
2018-06-30T07:04:56.644Z,3.10
2018-06-30T07:07:23.944Z,3.30
2018-06-30T07:09:51.258Z,3.10
2018-06-30T07:12:18.611Z,3.00
2018-06-30T07:14:46.045Z,3.00
2018-06-30T07:17:13.424Z,3.27
2018-06-30T07:19:40.736Z,3.03
2018-06-30T07:22:08.149Z,3.13
2018-06-30T07:24:35.466Z,2.70
2018-06-30T07:27:02.815Z,4.00
2018-06-30T07:29:30.169Z,3.10
2018-06-30T07:31:57.521Z,3.33
2018-06-30T07:34:24.825Z,2.83
2018-06-30T07:36:52.172Z,3.13
2018-06-30T07:39:19.489Z,2.70
2018-06-30T07:41:46.852Z,3.40
2018-06-30T07:44:14.187Z,2.77
2018-06-30T07:46:41.470Z,2.80
2018-06-30T07:49:08.785Z,2.70
2018-06-30T07:51:36.091Z,2.70
2018-06-30T07:54:03.469Z,2.83
2018-06-30T07:56:30.836Z,2.43
2018-06-30T07:58:58.189Z,3.73
2018-06-30T08:01:25.540Z,2.60
2018-06-30T08:03:53.195Z,2.63
2018-06-30T08:06:20.720Z,2.80
2018-06-30T08:08:48.411Z,2.70
2018-06-30T08:11:15.742Z,2.50
2018-06-30T08:13:43.146Z,2.73
2018-06-30T08:16:10.505Z,2.73
2018-06-30T08:18:37.856Z,2.40
2018-06-30T08:21:05.240Z,1.70
2018-06-30T08:23:32.518Z,2.00
2018-06-30T08:25:59.933Z,1.70
2018-06-30T08:28:27.304Z,2.30
2018-06-30T08:30:54.689Z,2.20
2018-06-30T08:33:22.097Z,1.87
2018-06-30T08:35:49.431Z,2.10
2018-06-30T08:38:16.798Z,2.23
2018-06-30T08:40:44.140Z,1.50
2018-06-30T08:43:11.994Z,1.57
2018-06-30T08:45:39.349Z,1.30
2018-06-30T08:48:06.895Z,1.40
2018-06-30T08:50:34.213Z,1.60
2018-06-30T08:53:01.493Z,1.20
2018-06-30T08:55:28.883Z,2.10
2018-06-30T08:57:56.230Z,1.40
2018-06-30T09:00:23.627Z,1.20
2018-06-30T09:02:50.884Z,1.30
2018-06-30T09:05:18.249Z,1.43
2018-06-30T09:07:45.599Z,1.20
2018-06-30T09:10:12.930Z,1.10
2018-06-30T09:12:40.329Z,1.20
2018-06-30T09:15:07.702Z,1.03
2018-06-30T09:17:35.007Z,0.90
2018-06-30T09:20:02.380Z,1.10
2018-06-30T09:22:29.736Z,1.40
2018-06-30T09:24:57.299Z,1.30
2018-06-30T09:27:24.604Z,1.30
2018-06-30T09:29:51.907Z,0.97
2018-06-30T09:32:19.219Z,1.00
2018-06-30T09:34:46.603Z,1.20
2018-06-30T09:37:14.085Z,0.97
2018-06-30T09:39:41.440Z,1.03
2018-06-30T09:42:08.819Z,1.00
2018-06-30T09:44:36.259Z,1.00
2018-06-30T09:47:03.561Z,1.10
2018-06-30T09:49:30.868Z,1.13
2018-06-30T09:51:58.311Z,1.17
2018-06-30T09:54:25.751Z,1.03
2018-06-30T09:56:53.081Z,1.20
2018-06-30T09:59:20.486Z,1.10
2018-06-30T10:01:48.003Z,1.60
2018-06-30T10:04:15.424Z,1.17
2018-06-30T10:06:43.777Z,1.00
2018-06-30T10:09:13.856Z,1.00
2018-06-30T10:11:42.227Z,1.03
2018-06-30T10:14:14.067Z,2.03
2018-06-30T10:16:41.591Z,1.40
2018-06-30T10:19:14.120Z,1.20
2018-06-30T10:21:41.672Z,1.00
2018-06-30T10:24:09.488Z,0.90
2018-06-30T10:26:41.567Z,0.97
2018-06-30T10:29:09.894Z,0.80
2018-06-30T10:31:37.461Z,1.00
2018-06-30T10:43:49.917Z,1.07
2018-06-30T10:46:23.854Z,1.00
2018-06-30T10:48:51.567Z,1.10
2018-06-30T10:51:20.056Z,0.90
2018-06-30T10:53:47.462Z,0.80
2018-06-30T10:56:16.034Z,0.80
2018-06-30T10:58:45.066Z,1.00
2018-06-30T11:01:12.563Z,0.97
2018-06-30T11:13:29.451Z,1.00
2018-06-30T11:16:06.260Z,1.00
2018-06-30T11:18:35.168Z,1.00
2018-06-30T11:21:02.654Z,0.93
2018-06-30T11:23:30.348Z,1.33
2018-06-30T11:25:58.632Z,0.90
2018-06-30T11:28:27.382Z,1.00
2018-06-30T11:30:54.765Z,1.00
2018-06-30T11:33:22.220Z,0.73
2018-06-30T11:35:50.486Z,0.80
2018-06-30T11:38:18.258Z,0.80
2018-06-30T11:40:50.133Z,1.30
2018-06-30T11:43:17.529Z,0.80
2018-06-30T11:45:46.631Z,0.97
2018-06-30T11:48:14.409Z,0.93
2018-06-30T11:50:42.604Z,0.70
2018-06-30T12:02:56.375Z,0.90
2018-06-30T12:05:23.963Z,1.00
2018-06-30T12:07:53.080Z,1.20
2018-06-30T12:10:24.748Z,1.07
2018-06-30T12:12:53.249Z,0.93
2018-06-30T12:15:32.199Z,1.53
2018-06-30T12:18:00.783Z,1.30
2018-06-30T12:20:28.299Z,0.93
2018-06-30T12:22:55.778Z,1.10
2018-06-30T12:25:24.448Z,0.97
2018-06-30T12:27:51.930Z,1.10
2018-06-30T12:30:19.474Z,0.80
2018-06-30T12:32:47.567Z,0.90
2018-06-30T12:35:15.030Z,0.97
2018-06-30T12:37:42.375Z,1.00
2018-06-30T12:40:09.769Z,0.80
2018-06-30T12:42:37.183Z,1.00
2018-06-30T12:45:04.760Z,0.83
2018-06-30T12:47:32.914Z,0.80
2018-06-30T12:50:00.405Z,1.20
2018-06-30T12:52:31.780Z,0.93
2018-06-30T12:54:59.916Z,0.87
2018-06-30T12:57:27.369Z,0.70
2018-06-30T12:59:54.848Z,1.00
2018-06-30T13:02:22.290Z,1.33
2018-06-30T13:04:49.711Z,1.60
2018-06-30T13:07:17.051Z,1.60
2018-06-30T13:09:44.549Z,1.83
2018-06-30T13:12:14.061Z,1.10
2018-06-30T13:14:41.415Z,0.90
2018-06-30T13:17:12.736Z,0.90
2018-06-30T13:19:40.835Z,0.90
2018-06-30T13:22:08.284Z,1.00
2018-06-30T13:24:35.690Z,0.87
2018-06-30T13:27:04.056Z,0.90
2018-06-30T13:29:31.480Z,0.90
2018-06-30T13:31:59.300Z,1.20
2018-06-30T13:34:26.831Z,0.90
2018-06-30T13:36:54.772Z,1.03
2018-06-30T13:39:22.953Z,1.00
2018-06-30T13:41:51.315Z,0.90
2018-06-30T13:44:18.997Z,1.00
2018-06-30T13:46:46.400Z,0.90
2018-06-30T13:49:18.623Z,0.93
2018-06-30T13:51:46.110Z,0.90
2018-06-30T13:54:13.935Z,1.17
2018-06-30T13:56:41.418Z,0.90
2018-06-30T13:59:09.629Z,1.07
2018-06-30T14:01:36.989Z,0.93
2018-06-30T14:04:04.511Z,1.10
2018-06-30T14:06:32.008Z,0.80
2018-06-30T14:08:59.445Z,0.83
2018-06-30T14:11:26.875Z,0.83
2018-06-30T14:13:54.268Z,0.80
2018-06-30T14:16:22.621Z,0.93
2018-06-30T14:18:51.287Z,1.10
2018-06-30T14:21:18.730Z,0.90
2018-06-30T14:23:46.715Z,0.97
2018-06-30T14:26:14.152Z,0.90
2018-06-30T14:28:41.743Z,0.80
2018-06-30T14:31:09.156Z,0.97
2018-06-30T14:33:36.603Z,0.80
2018-06-30T14:36:05.209Z,0.90
2018-06-30T14:38:32.711Z,0.90
2018-06-30T14:50:45.247Z,0.90
2018-06-30T14:53:12.684Z,0.80
2018-06-30T14:55:40.735Z,1.00
2018-06-30T14:58:08.129Z,0.73
2018-06-30T15:00:35.595Z,0.80
2018-06-30T15:03:03.050Z,0.83
2018-06-30T15:05:30.788Z,1.10
2018-06-30T15:07:58.616Z,0.90
2018-06-30T15:10:30.503Z,0.87
2018-06-30T15:12:57.950Z,0.77
2018-06-30T15:15:25.930Z,0.80
2018-06-30T15:17:59.907Z,0.80
2018-06-30T15:20:31.512Z,0.80
2018-06-30T15:23:00.136Z,0.90
2018-06-30T15:25:29.180Z,1.00
2018-06-30T15:28:01.673Z,1.00
2018-06-30T15:30:29.477Z,0.93
2018-06-30T15:32:57.241Z,0.90
2018-06-30T15:35:24.645Z,0.90
2018-06-30T15:37:53.700Z,0.90
2018-06-30T15:40:21.722Z,0.97
2018-06-30T15:42:49.169Z,0.77
2018-06-30T15:45:17.322Z,0.90
2018-06-30T15:47:44.730Z,1.00
2018-06-30T15:50:12.193Z,0.90
2018-06-30T15:52:40.048Z,0.80
2018-06-30T15:55:09.207Z,0.80
2018-06-30T15:57:37.224Z,0.90
2018-06-30T16:00:06.131Z,0.97
2018-06-30T16:02:33.778Z,0.97
2018-06-30T16:05:01.896Z,0.80
2018-06-30T16:07:29.549Z,0.90
2018-06-30T16:09:57.021Z,0.90
2018-06-30T16:12:24.751Z,1.10
2018-06-30T16:14:52.106Z,1.00
2018-06-30T16:17:20.779Z,1.00
2018-06-30T16:19:48.325Z,0.90
2018-06-30T16:22:15.687Z,1.00
2018-06-30T16:24:43.068Z,0.83
2018-06-30T16:27:10.498Z,0.90
2018-06-30T16:29:37.882Z,1.10
2018-06-30T16:32:05.349Z,0.90
2018-06-30T16:34:33.476Z,1.00
2018-06-30T16:37:03.279Z,0.90
2018-06-30T16:39:30.913Z,1.63
2018-06-30T16:41:58.313Z,1.20
2018-06-30T16:44:25.677Z,0.90
2018-06-30T16:46:54.366Z,0.90
2018-06-30T16:49:21.894Z,0.83
2018-06-30T16:51:49.355Z,0.90
2018-06-30T16:54:16.822Z,0.90
2018-06-30T16:56:44.484Z,0.90
2018-06-30T17:08:56.942Z,1.10
2018-06-30T17:11:24.374Z,0.90
2018-06-30T17:13:52.441Z,1.10
2018-06-30T17:16:25.164Z,0.87
2018-06-30T17:18:53.346Z,0.90
2018-06-30T17:21:20.765Z,0.90
2018-06-30T17:23:48.123Z,0.93
2018-06-30T17:26:15.561Z,0.90
2018-06-30T17:28:43.053Z,0.97
2018-06-30T17:31:10.444Z,1.40
2018-06-30T17:33:37.867Z,1.13
2018-06-30T17:36:05.322Z,1.57
2018-06-30T17:38:32.747Z,1.07
2018-06-30T17:41:02.158Z,1.10
2018-06-30T17:43:29.564Z,1.00
2018-06-30T17:45:57.128Z,1.00
2018-06-30T17:48:29.302Z,1.03
2018-06-30T17:50:56.715Z,1.07
2018-06-30T17:53:24.244Z,0.90
2018-06-30T17:55:52.157Z,1.00
2018-06-30T17:58:19.636Z,1.10
2018-06-30T18:00:47.030Z,1.00
2018-06-30T18:03:14.428Z,0.90
2018-06-30T18:05:41.897Z,0.90
2018-06-30T18:08:09.944Z,0.90
2018-06-30T18:10:37.287Z,1.03
2018-06-30T18:13:04.653Z,1.77
2018-06-30T18:15:31.999Z,0.90
2018-06-30T18:17:59.326Z,0.90
2018-06-30T18:20:26.644Z,1.00
2018-06-30T18:22:54.160Z,1.20
2018-06-30T18:25:21.492Z,0.93
2018-06-30T18:27:48.830Z,0.97
2018-06-30T18:30:16.201Z,0.90
2018-06-30T18:32:43.492Z,1.00
2018-06-30T18:35:11.544Z,1.07
2018-06-30T18:37:38.947Z,0.90
2018-06-30T18:40:06.664Z,0.97
2018-06-30T18:42:34.009Z,0.80
2018-06-30T18:45:01.385Z,0.90
2018-06-30T18:47:28.752Z,1.13
2018-06-30T18:49:56.104Z,0.97
2018-06-30T18:52:23.521Z,0.90
2018-06-30T18:54:50.897Z,0.83
2018-06-30T18:57:18.511Z,1.20
2018-06-30T18:59:45.842Z,0.93
2018-06-30T19:02:13.528Z,1.03
2018-06-30T19:04:40.847Z,1.00
2018-06-30T19:07:08.232Z,1.03
2018-06-30T19:09:39.825Z,1.00
2018-06-30T19:12:07.210Z,0.90
2018-06-30T19:14:34.630Z,1.00
2018-06-30T19:17:01.972Z,0.90
2018-06-30T19:19:29.378Z,1.00
2018-06-30T19:21:56.794Z,1.10
2018-06-30T19:24:24.184Z,1.30
2018-06-30T19:26:51.607Z,1.27
2018-06-30T19:29:18.947Z,1.10
2018-06-30T19:31:46.482Z,1.00
2018-06-30T19:34:13.999Z,1.00
2018-06-30T19:36:41.581Z,1.33
2018-06-30T19:39:10.295Z,1.57
2018-06-30T19:41:37.698Z,1.20
2018-06-30T19:44:05.281Z,1.50
2018-06-30T19:46:32.700Z,1.30
2018-06-30T19:49:00.449Z,1.10
2018-06-30T19:51:27.859Z,1.37
2018-06-30T19:53:55.357Z,1.33
2018-06-30T19:56:22.763Z,1.60
2018-06-30T19:58:50.413Z,1.40
2018-06-30T20:01:17.833Z,1.70
2018-06-30T20:03:45.214Z,1.53
2018-06-30T20:06:12.604Z,1.50
2018-06-30T20:08:40.094Z,1.53
2018-06-30T20:11:08.180Z,1.60
2018-06-30T20:13:35.591Z,1.50
2018-06-30T20:16:03.013Z,1.50
2018-06-30T20:18:31.133Z,1.50
2018-06-30T20:20:58.651Z,1.77
2018-06-30T20:23:26.050Z,1.30
2018-06-30T20:25:53.591Z,1.40
2018-06-30T20:28:21.058Z,1.50
2018-06-30T20:30:48.552Z,1.57
2018-06-30T20:33:15.939Z,1.40
2018-06-30T20:35:43.393Z,1.73
2018-06-30T20:38:10.866Z,1.40
2018-06-30T20:40:38.312Z,1.33
2018-06-30T20:43:05.789Z,1.70
2018-06-30T20:45:33.400Z,1.40
2018-06-30T20:48:00.910Z,1.30
2018-06-30T20:50:28.321Z,1.57
2018-06-30T20:52:56.119Z,1.57
2018-06-30T20:55:23.575Z,1.77
2018-06-30T20:57:51.097Z,1.97
2018-06-30T21:00:18.630Z,1.40
2018-06-30T21:02:46.046Z,1.47
2018-06-30T21:05:13.560Z,1.53
2018-06-30T21:07:40.969Z,1.90
2018-06-30T21:10:09.028Z,1.63
2018-06-30T21:12:36.455Z,1.50
2018-06-30T21:15:04.033Z,1.30
2018-06-30T21:17:31.420Z,1.37
2018-06-30T21:19:58.855Z,1.40
2018-06-30T21:22:26.198Z,1.30
2018-06-30T21:24:53.661Z,1.40
2018-06-30T21:27:21.074Z,1.10
2018-06-30T21:29:49.469Z,1.40
2018-06-30T21:32:16.882Z,1.60
2018-06-30T21:34:44.279Z,2.03
2018-06-30T21:37:11.704Z,1.60
2018-06-30T21:39:39.104Z,1.33
2018-06-30T21:42:06.570Z,1.30
2018-06-30T21:44:33.964Z,1.30
2018-06-30T21:47:01.395Z,1.50
2018-06-30T21:49:28.764Z,1.47
2018-06-30T21:51:56.134Z,1.40
2018-06-30T21:54:23.470Z,1.30
2018-06-30T21:56:51.056Z,1.45
2018-06-30T21:59:18.502Z,1.40
2018-06-30T22:01:46.722Z,1.73
2018-06-30T22:04:14.644Z,1.33
2018-06-30T22:06:42.167Z,1.42
2018-06-30T22:09:10.474Z,1.30
2018-06-30T22:11:38.146Z,1.50
2018-06-30T22:14:05.579Z,1.47
2018-06-30T22:16:32.976Z,1.70
2018-06-30T22:19:00.920Z,1.43
2018-06-30T22:21:28.317Z,1.63
2018-06-30T22:23:55.726Z,1.57
2018-06-30T22:26:23.540Z,1.70
2018-06-30T22:28:50.939Z,1.80
2018-06-30T22:31:19.059Z,1.70
2018-06-30T22:33:46.453Z,1.25
2018-06-30T22:36:14.003Z,2.00
2018-06-30T22:38:41.401Z,1.60
2018-06-30T22:41:08.772Z,1.40
2018-06-30T22:43:36.608Z,1.40
2018-06-30T22:46:04.324Z,2.05
2018-06-30T22:48:31.682Z,1.90
2018-06-30T22:50:59.108Z,1.30
2018-06-30T22:53:26.545Z,3.25
2018-06-30T22:55:53.938Z,3.60
2018-06-30T22:58:21.586Z,1.70
2018-06-30T23:00:49.016Z,1.72
2018-06-30T23:03:16.311Z,1.20
2018-06-30T23:05:43.675Z,2.93
2018-06-30T23:08:11.011Z,1.80
2018-06-30T23:10:38.358Z,1.60
2018-06-30T23:13:05.938Z,1.30
2018-06-30T23:15:33.316Z,1.40
2018-06-30T23:18:00.902Z,1.95
2018-06-30T23:20:28.237Z,2.30
2018-06-30T23:22:57.517Z,2.50
2018-06-30T23:25:26.398Z,2.08
2018-06-30T23:27:54.548Z,2.40
2018-06-30T23:30:21.982Z,1.47
2018-06-30T23:32:49.578Z,2.42
2018-06-30T23:35:16.932Z,1.77
2018-06-30T23:37:44.299Z,1.90
2018-06-30T23:40:11.662Z,2.17
2018-06-30T23:42:47.648Z,2.30
2018-06-30T23:45:15.069Z,2.05
2018-06-30T23:47:42.619Z,1.50
2018-06-30T23:50:10.740Z,1.70
2018-06-30T23:52:38.076Z,1.82
2018-06-30T23:55:05.741Z,1.42
2018-06-30T23:57:33.064Z,1.40
